sensor_id;sensor_type;location;lat;lon;timestamp;pressure;altitude;pressure_sealevel;temperature;humidity
58090;BME280;45149;50.976;6.120;2022-07-06T00:01:57;101389.69;;;12.97;100.00
58090;BME280;45149;50.976;6.120;2022-07-06T00:04:22;101384.13;;;12.78;100.00
58090;BME280;45149;50.976;6.120;2022-07-06T00:06:48;101387.66;;;12.72;100.00
58090;BME280;45149;50.976;6.120;2022-07-06T00:09:13;101382.91;;;12.67;100.00
58090;BME280;45149;50.976;6.120;2022-07-06T00:11:38;101391.97;;;12.73;100.00
58090;BME280;45149;50.976;6.120;2022-07-06T00:14:04;101380.63;;;12.64;100.00
58090;BME280;45149;50.976;6.120;2022-07-06T00:16:30;101371.97;;;12.69;100.00
58090;BME280;45149;50.976;6.120;2022-07-06T00:18:55;101369.91;;;12.64;100.00
58090;BME280;45149;50.976;6.120;2022-07-06T00:21:21;101366.19;;;12.52;100.00
58090;BME280;45149;50.976;6.120;2022-07-06T00:23:46;101371.34;;;12.33;100.00
58090;BME280;45149;50.976;6.120;2022-07-06T00:26:12;101377.13;;;12.44;100.00
58090;BME280;45149;50.976;6.120;2022-07-06T00:28:37;101374.03;;;12.40;100.00
58090;BME280;45149;50.976;6.120;2022-07-06T00:31:02;101381.44;;;12.38;100.00
58090;BME280;45149;50.976;6.120;2022-07-06T00:33:29;101371.56;;;12.38;100.00
58090;BME280;45149;50.976;6.120;2022-07-06T00:35:54;101371.75;;;12.44;100.00
58090;BME280;45149;50.976;6.120;2022-07-06T00:38:20;101367.84;;;12.26;100.00
58090;BME280;45149;50.976;6.120;2022-07-06T00:40:45;101376.09;;;12.25;100.00
58090;BME280;45149;50.976;6.120;2022-07-06T00:43:10;101373.81;;;12.21;100.00
58090;BME280;45149;50.976;6.120;2022-07-06T00:45:36;101371.53;;;12.18;100.00
58090;BME280;45149;50.976;6.120;2022-07-06T00:48:01;101372.97;;;12.21;100.00
58090;BME280;45149;50.976;6.120;2022-07-06T00:50:27;101379.16;;;12.08;100.00
58090;BME280;45149;50.976;6.120;2022-07-06T00:53:00;101382.06;;;12.27;100.00
58090;BME280;45149;50.976;6.120;2022-07-06T00:55:28;101375.66;;;12.14;100.00
58090;BME280;45149;50.976;6.120;2022-07-06T00:57:54;101375.41;;;12.02;100.00
58090;BME280;45149;50.976;6.120;2022-07-06T01:00:23;101374.84;;;12.14;100.00
58090;BME280;45149;50.976;6.120;2022-07-06T01:02:50;101374.66;;;12.22;100.00
58090;BME280;45149;50.976;6.120;2022-07-06T01:05:15;101376.28;;;12.10;100.00
58090;BME280;45149;50.976;6.120;2022-07-06T01:07:43;101373.91;;;11.86;100.00
58090;BME280;45149;50.976;6.120;2022-07-06T01:10:11;101366.50;;;11.82;100.00
58090;BME280;45149;50.976;6.120;2022-07-06T01:12:40;101378.81;;;11.76;100.00
58090;BME280;45149;50.976;6.120;2022-07-06T01:15:09;101382.91;;;11.72;100.00
58090;BME280;45149;50.976;6.120;2022-07-06T01:17:35;101379.34;;;11.58;100.00
58090;BME280;45149;50.976;6.120;2022-07-06T01:20:15;101378.31;;;11.52;100.00
58090;BME280;45149;50.976;6.120;2022-07-06T01:22:41;101373.78;;;11.46;100.00
58090;BME280;45149;50.976;6.120;2022-07-06T01:25:08;101375.44;;;11.54;100.00
58090;BME280;45149;50.976;6.120;2022-07-06T01:27:38;101374.66;;;11.60;100.00
58090;BME280;45149;50.976;6.120;2022-07-06T01:30:12;101374.38;;;11.48;100.00
58090;BME280;45149;50.976;6.120;2022-07-06T01:32:38;101369.44;;;11.45;100.00
58090;BME280;45149;50.976;6.120;2022-07-06T01:35:06;101373.97;;;11.51;100.00
58090;BME280;45149;50.976;6.120;2022-07-06T01:37:32;101371.63;;;11.35;100.00
58090;BME280;45149;50.976;6.120;2022-07-06T01:39:58;101371.28;;;11.45;100.00
58090;BME280;45149;50.976;6.120;2022-07-06T01:42:24;101370.44;;;11.44;100.00
58090;BME280;45149;50.976;6.120;2022-07-06T01:44:50;101368.19;;;11.41;100.00
58090;BME280;45149;50.976;6.120;2022-07-06T01:47:15;101371.13;;;11.60;100.00
58090;BME280;45149;50.976;6.120;2022-07-06T01:49:40;101370.28;;;11.52;100.00
58090;BME280;45149;50.976;6.120;2022-07-06T01:52:06;101366.75;;;11.45;100.00
58090;BME280;45149;50.976;6.120;2022-07-06T01:54:31;101364.28;;;11.44;100.00
58090;BME280;45149;50.976;6.120;2022-07-06T01:56:56;101365.31;;;11.43;100.00
58090;BME280;45149;50.976;6.120;2022-07-06T01:59:22;101368.19;;;11.41;100.00
58090;BME280;45149;50.976;6.120;2022-07-06T02:01:47;101368.81;;;11.50;100.00
58090;BME280;45149;50.976;6.120;2022-07-06T02:04:12;101362.03;;;11.41;100.00
58090;BME280;45149;50.976;6.120;2022-07-06T02:06:38;101374.75;;;11.38;100.00
58090;BME280;45149;50.976;6.120;2022-07-06T02:09:03;101368.38;;;11.39;100.00
58090;BME280;45149;50.976;6.120;2022-07-06T02:11:29;101376.53;;;11.25;100.00
58090;BME280;45149;50.976;6.120;2022-07-06T02:13:54;101375.72;;;11.31;100.00
58090;BME280;45149;50.976;6.120;2022-07-06T02:16:20;101372.59;;;11.20;100.00
58090;BME280;45149;50.976;6.120;2022-07-06T02:18:45;101374.13;;;11.36;100.00
58090;BME280;45149;50.976;6.120;2022-07-06T02:21:10;101382.03;;;11.16;100.00
58090;BME280;45149;50.976;6.120;2022-07-06T02:23:36;101377.59;;;11.30;100.00
58090;BME280;45149;50.976;6.120;2022-07-06T02:26:01;101369.78;;;11.29;100.00
58090;BME280;45149;50.976;6.120;2022-07-06T02:28:26;101363.78;;;11.27;100.00
58090;BME280;45149;50.976;6.120;2022-07-06T02:30:52;101362.75;;;11.28;100.00
58090;BME280;45149;50.976;6.120;2022-07-06T02:33:17;101356.34;;;11.22;100.00
58090;BME280;45149;50.976;6.120;2022-07-06T02:35:43;101354.69;;;11.14;100.00
58090;BME280;45149;50.976;6.120;2022-07-06T02:38:09;101362.16;;;11.26;100.00
58090;BME280;45149;50.976;6.120;2022-07-06T02:40:34;101361.31;;;11.25;100.00
58090;BME280;45149;50.976;6.120;2022-07-06T02:43:00;101350.97;;;11.15;100.00
58090;BME280;45149;50.976;6.120;2022-07-06T02:45:25;101365.91;;;11.03;100.00
58090;BME280;45149;50.976;6.120;2022-07-06T02:47:50;101361.59;;;11.02;100.00
58090;BME280;45149;50.976;6.120;2022-07-06T02:50:16;101360.53;;;10.96;100.00
58090;BME280;45149;50.976;6.120;2022-07-06T02:52:42;101358.13;;;11.08;100.00
58090;BME280;45149;50.976;6.120;2022-07-06T02:55:07;101370.03;;;11.05;100.00
58090;BME280;45149;50.976;6.120;2022-07-06T02:57:33;101368.97;;;11.00;100.00
58090;BME280;45149;50.976;6.120;2022-07-06T02:59:58;101372.44;;;10.94;100.00
58090;BME280;45149;50.976;6.120;2022-07-06T03:02:23;101371.13;;;10.83;100.00
58090;BME280;45149;50.976;6.120;2022-07-06T03:04:49;101372.00;;;10.90;100.00
58090;BME280;45149;50.976;6.120;2022-07-06T03:07:15;101373.72;;;10.98;100.00
58090;BME280;45149;50.976;6.120;2022-07-06T03:09:40;101377.41;;;10.97;100.00
58090;BME280;45149;50.976;6.120;2022-07-06T03:12:06;101372.78;;;10.84;100.00
58090;BME280;45149;50.976;6.120;2022-07-06T03:14:31;101384.56;;;10.96;100.00
58090;BME280;45149;50.976;6.120;2022-07-06T03:16:57;101383.03;;;10.80;100.00
58090;BME280;45149;50.976;6.120;2022-07-06T03:19:22;101377.34;;;10.90;100.00
58090;BME280;45149;50.976;6.120;2022-07-06T03:21:47;101387.84;;;10.92;100.00
58090;BME280;45149;50.976;6.120;2022-07-06T03:24:13;101389.50;;;10.93;100.00
58090;BME280;45149;50.976;6.120;2022-07-06T03:26:38;101384.06;;;10.79;100.00
58090;BME280;45149;50.976;6.120;2022-07-06T03:29:04;101383.44;;;10.77;100.00
58090;BME280;45149;50.976;6.120;2022-07-06T03:31:29;101392.84;;;10.73;100.00
58090;BME280;45149;50.976;6.120;2022-07-06T03:33:54;101396.16;;;10.75;100.00
58090;BME280;45149;50.976;6.120;2022-07-06T03:36:20;101392.06;;;10.79;100.00
58090;BME280;45149;50.976;6.120;2022-07-06T03:38:45;101395.66;;;10.93;100.00
58090;BME280;45149;50.976;6.120;2022-07-06T03:41:10;101391.94;;;10.87;100.00
58090;BME280;45149;50.976;6.120;2022-07-06T03:43:36;101400.28;;;10.78;100.00
58090;BME280;45149;50.976;6.120;2022-07-06T03:46:02;101392.22;;;10.71;100.00
58090;BME280;45149;50.976;6.120;2022-07-06T03:48:28;101394.25;;;10.69;100.00
58090;BME280;45149;50.976;6.120;2022-07-06T03:50:54;101388.44;;;10.87;100.00
58090;BME280;45149;50.976;6.120;2022-07-06T03:53:19;101382.66;;;10.83;100.00
58090;BME280;45149;50.976;6.120;2022-07-06T03:55:45;101397.03;;;10.82;100.00
58090;BME280;45149;50.976;6.120;2022-07-06T03:58:30;101395.75;;;10.78;100.00
58090;BME280;45149;50.976;6.120;2022-07-06T04:00:55;101402.56;;;10.81;100.00
58090;BME280;45149;50.976;6.120;2022-07-06T04:03:21;101403.25;;;10.90;100.00
58090;BME280;45149;50.976;6.120;2022-07-06T04:05:46;101406.94;;;10.88;100.00
58090;BME280;45149;50.976;6.120;2022-07-06T04:08:11;101405.81;;;11.04;100.00
58090;BME280;45149;50.976;6.120;2022-07-06T04:10:37;101410.28;;;10.97;100.00
58090;BME280;45149;50.976;6.120;2022-07-06T04:13:02;101400.69;;;10.75;100.00
58090;BME280;45149;50.976;6.120;2022-07-06T04:15:27;101408.06;;;11.01;100.00
58090;BME280;45149;50.976;6.120;2022-07-06T04:17:53;101407.56;;;10.91;100.00
58090;BME280;45149;50.976;6.120;2022-07-06T04:20:22;101405.38;;;11.01;100.00
58090;BME280;45149;50.976;6.120;2022-07-06T04:22:48;101406.25;;;11.08;100.00
58090;BME280;45149;50.976;6.120;2022-07-06T04:25:13;101409.78;;;11.15;100.00
58090;BME280;45149;50.976;6.120;2022-07-06T04:27:39;101413.56;;;11.28;100.00
58090;BME280;45149;50.976;6.120;2022-07-06T04:30:06;101421.38;;;11.29;100.00
58090;BME280;45149;50.976;6.120;2022-07-06T04:32:32;101419.13;;;11.26;100.00
58090;BME280;45149;50.976;6.120;2022-07-06T04:34:57;101418.19;;;11.41;100.00
58090;BME280;45149;50.976;6.120;2022-07-06T04:37:23;101408.53;;;11.46;100.00
58090;BME280;45149;50.976;6.120;2022-07-06T04:39:48;101409.75;;;11.44;100.00
58090;BME280;45149;50.976;6.120;2022-07-06T04:42:14;101412.53;;;11.70;100.00
58090;BME280;45149;50.976;6.120;2022-07-06T04:44:39;101411.69;;;11.63;100.00
58090;BME280;45149;50.976;6.120;2022-07-06T04:47:04;101401.63;;;11.72;100.00
58090;BME280;45149;50.976;6.120;2022-07-06T04:49:30;101407.78;;;11.59;100.00
58090;BME280;45149;50.976;6.120;2022-07-06T04:51:55;101409.25;;;11.68;100.00
58090;BME280;45149;50.976;6.120;2022-07-06T04:54:20;101411.59;;;11.85;100.00
58090;BME280;45149;50.976;6.120;2022-07-06T04:56:46;101412.59;;;11.84;100.00
58090;BME280;45149;50.976;6.120;2022-07-06T04:59:12;101413.72;;;11.96;100.00
58090;BME280;45149;50.976;6.120;2022-07-06T05:01:37;101417.63;;;12.00;100.00
58090;BME280;45149;50.976;6.120;2022-07-06T05:04:03;101419.13;;;12.10;100.00
58090;BME280;45149;50.976;6.120;2022-07-06T05:06:28;101415.38;;;11.97;100.00
58090;BME280;45149;50.976;6.120;2022-07-06T05:08:53;101413.34;;;12.13;100.00
58090;BME280;45149;50.976;6.120;2022-07-06T05:11:19;101411.13;;;12.43;100.00
58090;BME280;45149;50.976;6.120;2022-07-06T05:13:44;101415.47;;;12.37;100.00
58090;BME280;45149;50.976;6.120;2022-07-06T05:16:10;101414.44;;;12.38;100.00
58090;BME280;45149;50.976;6.120;2022-07-06T05:18:35;101414.25;;;12.47;100.00
58090;BME280;45149;50.976;6.120;2022-07-06T05:21:00;101414.63;;;12.44;100.00
58090;BME280;45149;50.976;6.120;2022-07-06T05:23:26;101416.91;;;12.40;100.00
58090;BME280;45149;50.976;6.120;2022-07-06T05:25:53;101417.31;;;12.30;100.00
58090;BME280;45149;50.976;6.120;2022-07-06T05:28:18;101417.13;;;12.65;100.00
58090;BME280;45149;50.976;6.120;2022-07-06T05:30:44;101422.69;;;12.77;100.00
58090;BME280;45149;50.976;6.120;2022-07-06T05:33:09;101418.38;;;12.83;100.00
58090;BME280;45149;50.976;6.120;2022-07-06T05:35:35;101425.19;;;12.85;100.00
58090;BME280;45149;50.976;6.120;2022-07-06T05:38:00;101423.31;;;12.99;100.00
58090;BME280;45149;50.976;6.120;2022-07-06T05:40:25;101423.25;;;13.19;100.00
58090;BME280;45149;50.976;6.120;2022-07-06T05:42:51;101423.91;;;13.15;100.00
58090;BME280;45149;50.976;6.120;2022-07-06T05:45:16;101421.00;;;13.36;100.00
58090;BME280;45149;50.976;6.120;2022-07-06T05:47:41;101425.94;;;13.46;100.00
58090;BME280;45149;50.976;6.120;2022-07-06T05:50:25;101427.38;;;13.42;100.00
58090;BME280;45149;50.976;6.120;2022-07-06T05:52:59;101428.69;;;13.78;100.00
58090;BME280;45149;50.976;6.120;2022-07-06T05:55:24;101428.00;;;13.96;100.00
58090;BME280;45149;50.976;6.120;2022-07-06T05:57:50;101427.69;;;14.18;100.00
58090;BME280;45149;50.976;6.120;2022-07-06T06:00:15;101430.13;;;14.26;100.00
58090;BME280;45149;50.976;6.120;2022-07-06T06:02:42;101431.28;;;14.37;100.00
58090;BME280;45149;50.976;6.120;2022-07-06T06:05:10;101432.59;;;14.53;100.00
58090;BME280;45149;50.976;6.120;2022-07-06T06:07:39;101433.06;;;14.50;100.00
58090;BME280;45149;50.976;6.120;2022-07-06T06:10:07;101435.34;;;14.78;100.00
58090;BME280;45149;50.976;6.120;2022-07-06T06:12:33;101440.56;;;14.98;100.00
58090;BME280;45149;50.976;6.120;2022-07-06T06:14:59;101433.75;;;14.95;100.00
58090;BME280;45149;50.976;6.120;2022-07-06T06:17:24;101432.47;;;14.98;100.00
58090;BME280;45149;50.976;6.120;2022-07-06T06:19:50;101442.00;;;15.19;100.00
58090;BME280;45149;50.976;6.120;2022-07-06T06:22:15;101444.72;;;15.38;100.00
58090;BME280;45149;50.976;6.120;2022-07-06T06:24:40;101437.94;;;15.54;100.00
58090;BME280;45149;50.976;6.120;2022-07-06T06:27:06;101439.28;;;15.44;100.00
58090;BME280;45149;50.976;6.120;2022-07-06T06:29:32;101441.22;;;15.56;100.00
58090;BME280;45149;50.976;6.120;2022-07-06T06:31:57;101439.31;;;15.93;100.00
58090;BME280;45149;50.976;6.120;2022-07-06T06:34:22;101436.06;;;16.22;100.00
58090;BME280;45149;50.976;6.120;2022-07-06T06:36:48;101446.31;;;15.83;100.00
58090;BME280;45149;50.976;6.120;2022-07-06T06:39:13;101443.53;;;15.89;100.00
58090;BME280;45149;50.976;6.120;2022-07-06T06:41:38;101450.78;;;15.89;100.00
58090;BME280;45149;50.976;6.120;2022-07-06T06:44:04;101455.94;;;15.90;100.00
58090;BME280;45149;50.976;6.120;2022-07-06T06:46:29;101459.38;;;16.28;100.00
58090;BME280;45149;50.976;6.120;2022-07-06T06:48:54;101458.84;;;16.38;100.00
58090;BME280;45149;50.976;6.120;2022-07-06T06:51:20;101454.78;;;16.71;100.00
58090;BME280;45149;50.976;6.120;2022-07-06T06:53:46;101463.69;;;17.02;100.00
58090;BME280;45149;50.976;6.120;2022-07-06T06:56:11;101464.03;;;17.17;100.00
58090;BME280;45149;50.976;6.120;2022-07-06T06:58:37;101472.00;;;17.12;100.00
58090;BME280;45149;50.976;6.120;2022-07-06T07:01:02;101463.56;;;17.32;100.00
58090;BME280;45149;50.976;6.120;2022-07-06T07:03:28;101470.69;;;17.50;100.00
58090;BME280;45149;50.976;6.120;2022-07-06T07:05:53;101473.63;;;17.89;100.00
58090;BME280;45149;50.976;6.120;2022-07-06T07:08:18;101469.41;;;17.53;100.00
58090;BME280;45149;50.976;6.120;2022-07-06T07:10:44;101481.31;;;17.80;100.00
58090;BME280;45149;50.976;6.120;2022-07-06T07:13:09;101476.16;;;17.67;100.00
58090;BME280;45149;50.976;6.120;2022-07-06T07:15:34;101482.34;;;18.03;100.00
58090;BME280;45149;50.976;6.120;2022-07-06T07:18:00;101464.91;;;18.11;100.00
58090;BME280;45149;50.976;6.120;2022-07-06T07:20:26;101470.75;;;18.65;100.00
58090;BME280;45149;50.976;6.120;2022-07-06T07:22:51;101468.13;;;19.05;100.00
58090;BME280;45149;50.976;6.120;2022-07-06T07:25:16;101465.94;;;19.01;100.00
58090;BME280;45149;50.976;6.120;2022-07-06T07:27:42;101466.03;;;18.27;100.00
58090;BME280;45149;50.976;6.120;2022-07-06T07:30:08;101465.84;;;17.76;100.00
58090;BME280;45149;50.976;6.120;2022-07-06T07:32:33;101473.31;;;17.86;100.00
58090;BME280;45149;50.976;6.120;2022-07-06T07:34:58;101464.16;;;17.87;100.00
58090;BME280;45149;50.976;6.120;2022-07-06T07:37:24;101472.97;;;19.20;100.00
58090;BME280;45149;50.976;6.120;2022-07-06T07:39:49;101476.06;;;19.90;100.00
58090;BME280;45149;50.976;6.120;2022-07-06T07:42:15;101469.91;;;19.33;100.00
58090;BME280;45149;50.976;6.120;2022-07-06T07:44:40;101465.34;;;19.16;100.00
58090;BME280;45149;50.976;6.120;2022-07-06T07:47:07;101475.03;;;19.74;100.00
58090;BME280;45149;50.976;6.120;2022-07-06T07:49:32;101473.44;;;19.56;100.00
58090;BME280;45149;50.976;6.120;2022-07-06T07:51:58;101464.19;;;19.51;100.00
58090;BME280;45149;50.976;6.120;2022-07-06T07:54:23;101469.28;;;19.09;100.00
58090;BME280;45149;50.976;6.120;2022-07-06T07:56:48;101473.38;;;18.77;100.00
58090;BME280;45149;50.976;6.120;2022-07-06T07:59:14;101470.69;;;18.31;100.00
58090;BME280;45149;50.976;6.120;2022-07-06T08:01:39;101468.44;;;18.57;100.00
58090;BME280;45149;50.976;6.120;2022-07-06T08:04:05;101467.66;;;19.08;99.54
58090;BME280;45149;50.976;6.120;2022-07-06T08:06:31;101463.50;;;19.61;96.35
58090;BME280;45149;50.976;6.120;2022-07-06T08:08:56;101462.41;;;20.01;95.47
58090;BME280;45149;50.976;6.120;2022-07-06T08:11:21;101453.34;;;19.29;93.45
58090;BME280;45149;50.976;6.120;2022-07-06T08:13:47;101458.63;;;19.02;96.18
58090;BME280;45149;50.976;6.120;2022-07-06T08:16:13;101447.81;;;18.22;96.93
58090;BME280;45149;50.976;6.120;2022-07-06T08:18:38;101455.53;;;18.02;100.00
58090;BME280;45149;50.976;6.120;2022-07-06T08:21:04;101454.72;;;18.30;100.00
58090;BME280;45149;50.976;6.120;2022-07-06T08:23:30;101454.44;;;18.14;100.00
58090;BME280;45149;50.976;6.120;2022-07-06T08:25:55;101452.69;;;18.37;100.00
58090;BME280;45149;50.976;6.120;2022-07-06T08:28:21;101454.78;;;18.64;97.96
58090;BME280;45149;50.976;6.120;2022-07-06T08:30:46;101463.22;;;18.84;91.38
58090;BME280;45149;50.976;6.120;2022-07-06T08:33:12;101462.41;;;19.40;92.50
58090;BME280;45149;50.976;6.120;2022-07-06T08:35:38;101467.31;;;20.05;88.65
58090;BME280;45149;50.976;6.120;2022-07-06T08:38:03;101461.84;;;20.92;84.58
58090;BME280;45149;50.976;6.120;2022-07-06T08:40:33;101467.78;;;21.26;73.65
58090;BME280;45149;50.976;6.120;2022-07-06T08:42:59;101464.47;;;21.62;64.58
58090;BME280;45149;50.976;6.120;2022-07-06T08:45:26;101467.38;;;22.23;66.58
58090;BME280;45149;50.976;6.120;2022-07-06T08:47:53;101470.69;;;22.98;66.02
58090;BME280;45149;50.976;6.120;2022-07-06T08:50:19;101479.75;;;23.69;59.16
58090;BME280;45149;50.976;6.120;2022-07-06T08:52:47;101475.94;;;24.25;56.19
58090;BME280;45149;50.976;6.120;2022-07-06T08:55:12;101475.03;;;23.95;53.18
58090;BME280;45149;50.976;6.120;2022-07-06T08:57:38;101478.22;;;23.42;57.77
58090;BME280;45149;50.976;6.120;2022-07-06T09:00:07;101473.88;;;22.07;59.41
58090;BME280;45149;50.976;6.120;2022-07-06T09:02:33;101461.16;;;23.76;57.96
58090;BME280;45149;50.976;6.120;2022-07-06T09:05:02;101463.38;;;24.64;51.65
58090;BME280;45149;50.976;6.120;2022-07-06T09:07:28;101472.78;;;23.47;53.33
58090;BME280;45149;50.976;6.120;2022-07-06T09:09:54;101469.56;;;23.09;54.12
58090;BME280;45149;50.976;6.120;2022-07-06T09:12:19;101470.16;;;22.60;53.75
58090;BME280;45149;50.976;6.120;2022-07-06T09:14:45;101459.88;;;21.19;56.07
58090;BME280;45149;50.976;6.120;2022-07-06T09:17:11;101448.50;;;20.85;59.40
58090;BME280;45149;50.976;6.120;2022-07-06T09:19:37;101452.16;;;20.36;62.87
58090;BME280;45149;50.976;6.120;2022-07-06T09:22:03;101450.00;;;20.38;64.94
58090;BME280;45149;50.976;6.120;2022-07-06T09:24:28;101448.53;;;20.58;63.59
58090;BME280;45149;50.976;6.120;2022-07-06T09:26:57;101454.59;;;20.65;66.18
58090;BME280;45149;50.976;6.120;2022-07-06T09:29:30;101452.56;;;20.50;63.21
58090;BME280;45149;50.976;6.120;2022-07-06T09:32:00;101458.09;;;21.41;59.27
58090;BME280;45149;50.976;6.120;2022-07-06T09:34:45;101452.69;;;22.86;56.98
58090;BME280;45149;50.976;6.120;2022-07-06T09:37:11;101459.22;;;22.29;54.77
58090;BME280;45149;50.976;6.120;2022-07-06T09:39:37;101461.66;;;22.30;54.48
58090;BME280;45149;50.976;6.120;2022-07-06T09:42:04;101450.97;;;23.42;52.48
58090;BME280;45149;50.976;6.120;2022-07-06T09:44:32;101460.31;;;24.36;53.61
58090;BME280;45149;50.976;6.120;2022-07-06T09:46:59;101463.41;;;24.58;51.84
58090;BME280;45149;50.976;6.120;2022-07-06T09:49:25;101464.63;;;25.06;49.24
58090;BME280;45149;50.976;6.120;2022-07-06T09:51:53;101457.75;;;24.84;49.00
58090;BME280;45149;50.976;6.120;2022-07-06T09:54:19;101467.75;;;24.59;47.60
58090;BME280;45149;50.976;6.120;2022-07-06T09:56:46;101456.91;;;23.60;51.07
58090;BME280;45149;50.976;6.120;2022-07-06T09:59:16;101469.50;;;22.06;54.88
58090;BME280;45149;50.976;6.120;2022-07-06T10:01:42;101458.47;;;21.60;56.01
58090;BME280;45149;50.976;6.120;2022-07-06T10:04:10;101457.38;;;21.13;57.35
58090;BME280;45149;50.976;6.120;2022-07-06T10:06:38;101461.78;;;21.19;59.46
58090;BME280;45149;50.976;6.120;2022-07-06T10:09:08;101461.56;;;21.31;57.13
58090;BME280;45149;50.976;6.120;2022-07-06T10:11:43;101463.88;;;22.90;60.66
58090;BME280;45149;50.976;6.120;2022-07-06T10:14:10;101463.75;;;23.47;51.31
58090;BME280;45149;50.976;6.120;2022-07-06T10:16:38;101466.34;;;22.76;53.26
58090;BME280;45149;50.976;6.120;2022-07-06T10:19:08;101458.44;;;22.69;54.87
58090;BME280;45149;50.976;6.120;2022-07-06T10:21:36;101463.00;;;22.17;55.98
58090;BME280;45149;50.976;6.120;2022-07-06T10:24:03;101463.78;;;21.97;56.96
58090;BME280;45149;50.976;6.120;2022-07-06T10:26:29;101461.41;;;22.32;54.66
58090;BME280;45149;50.976;6.120;2022-07-06T10:28:58;101455.63;;;21.97;53.45
58090;BME280;45149;50.976;6.120;2022-07-06T10:31:23;101462.38;;;23.49;52.18
58090;BME280;45149;50.976;6.120;2022-07-06T10:33:49;101456.41;;;24.07;53.99
58090;BME280;45149;50.976;6.120;2022-07-06T10:36:15;101450.59;;;23.64;53.47
58090;BME280;45149;50.976;6.120;2022-07-06T10:38:46;101453.25;;;22.47;53.44
58090;BME280;45149;50.976;6.120;2022-07-06T10:41:14;101455.31;;;21.83;55.35
58090;BME280;45149;50.976;6.120;2022-07-06T10:43:43;101447.22;;;22.14;54.93
58090;BME280;45149;50.976;6.120;2022-07-06T10:46:10;101460.44;;;21.80;53.59
58090;BME280;45149;50.976;6.120;2022-07-06T10:48:38;101448.41;;;21.55;53.37
58090;BME280;45149;50.976;6.120;2022-07-06T10:51:04;101447.34;;;21.61;56.14
58090;BME280;45149;50.976;6.120;2022-07-06T10:53:35;101457.75;;;21.90;56.21
58090;BME280;45149;50.976;6.120;2022-07-06T10:56:05;101463.59;;;23.17;54.95
58090;BME280;45149;50.976;6.120;2022-07-06T10:58:45;101454.31;;;23.03;56.55
58090;BME280;45149;50.976;6.120;2022-07-06T11:01:11;101450.84;;;22.51;53.57
58090;BME280;45149;50.976;6.120;2022-07-06T11:03:42;101449.75;;;22.47;54.42
58090;BME280;45149;50.976;6.120;2022-07-06T11:06:16;101447.22;;;23.22;56.53
58090;BME280;45149;50.976;6.120;2022-07-06T11:08:47;101452.78;;;24.17;48.93
58090;BME280;45149;50.976;6.120;2022-07-06T11:11:15;101449.47;;;23.70;49.23
58090;BME280;45149;50.976;6.120;2022-07-06T11:14:04;101444.38;;;23.53;48.67
58090;BME280;45149;50.976;6.120;2022-07-06T11:16:31;101444.28;;;22.47;51.10
58090;BME280;45149;50.976;6.120;2022-07-06T11:21:36;101450.78;;;22.35;53.18
58090;BME280;45149;50.976;6.120;2022-07-06T11:24:04;101455.44;;;22.45;53.74
58090;BME280;45149;50.976;6.120;2022-07-06T11:26:30;101443.84;;;21.76;53.52
58090;BME280;45149;50.976;6.120;2022-07-06T11:28:58;101443.63;;;21.88;54.51
58090;BME280;45149;50.976;6.120;2022-07-06T11:31:23;101439.41;;;22.59;54.80
58090;BME280;45149;50.976;6.120;2022-07-06T11:33:49;101444.56;;;22.61;54.99
58090;BME280;45149;50.976;6.120;2022-07-06T11:36:19;101449.19;;;22.45;52.98
58090;BME280;45149;50.976;6.120;2022-07-06T11:38:46;101446.16;;;22.31;51.53
58090;BME280;45149;50.976;6.120;2022-07-06T11:41:12;101443.97;;;22.22;52.94
58090;BME280;45149;50.976;6.120;2022-07-06T11:43:43;101448.31;;;22.23;52.69
58090;BME280;45149;50.976;6.120;2022-07-06T11:46:34;101438.22;;;22.03;51.43
58090;BME280;45149;50.976;6.120;2022-07-06T11:49:05;101448.59;;;22.27;54.30
58090;BME280;45149;50.976;6.120;2022-07-06T11:51:34;101436.91;;;22.83;59.59
58090;BME280;45149;50.976;6.120;2022-07-06T11:54:01;101446.09;;;23.34;56.78
58090;BME280;45149;50.976;6.120;2022-07-06T11:56:28;101448.53;;;23.40;52.62
58090;BME280;45149;50.976;6.120;2022-07-06T11:58:56;101442.88;;;22.90;53.03
58090;BME280;45149;50.976;6.120;2022-07-06T12:01:23;101433.63;;;22.97;51.20
58090;BME280;45149;50.976;6.120;2022-07-06T12:03:49;101443.16;;;23.04;52.22
58090;BME280;45149;50.976;6.120;2022-07-06T12:06:22;101427.03;;;23.29;53.42
58090;BME280;45149;50.976;6.120;2022-07-06T12:08:51;101432.75;;;23.27;51.99
58090;BME280;45149;50.976;6.120;2022-07-06T12:11:19;101421.63;;;23.18;51.55
58090;BME280;45149;50.976;6.120;2022-07-06T12:13:46;101424.88;;;23.26;53.77
58090;BME280;45149;50.976;6.120;2022-07-06T12:16:12;101423.00;;;23.76;52.53
58090;BME280;45149;50.976;6.120;2022-07-06T12:18:39;101423.47;;;23.94;50.29
58090;BME280;45149;50.976;6.120;2022-07-06T12:21:07;101420.78;;;23.28;49.73
58090;BME280;45149;50.976;6.120;2022-07-06T12:23:40;101412.97;;;22.60;52.97
58090;BME280;45149;50.976;6.120;2022-07-06T12:26:07;101414.00;;;23.05;55.06
58090;BME280;45149;50.976;6.120;2022-07-06T12:28:33;101418.00;;;23.38;51.53
58090;BME280;45149;50.976;6.120;2022-07-06T12:30:58;101412.38;;;23.74;53.08
58090;BME280;45149;50.976;6.120;2022-07-06T12:33:23;101403.56;;;23.43;51.93
58090;BME280;45149;50.976;6.120;2022-07-06T12:35:49;101395.91;;;23.95;47.97
58090;BME280;45149;50.976;6.120;2022-07-06T12:38:25;101401.94;;;23.32;50.37
58090;BME280;45149;50.976;6.120;2022-07-06T12:40:50;101395.31;;;23.48;49.10
58090;BME280;45149;50.976;6.120;2022-07-06T12:43:38;101397.91;;;23.14;49.81